sensor_id;sensor_type;location;lat;lon;timestamp;P1;durP1;ratioP1;P2;durP2;ratioP2
8642;SDS011;4359;49.358;11.256;2022-09-17T00:01:55;11.30;;;3.28;;
8642;SDS011;4359;49.358;11.256;2022-09-17T00:04:20;6.03;;;3.17;;
8642;SDS011;4359;49.358;11.256;2022-09-17T00:09:12;8.77;;;2.83;;
8642;SDS011;4359;49.358;11.256;2022-09-17T00:14:05;4.93;;;2.83;;
8642;SDS011;4359;49.358;11.256;2022-09-17T00:16:37;7.78;;;3.00;;
8642;SDS011;4359;49.358;11.256;2022-09-17T00:19:05;6.90;;;3.13;;
8642;SDS011;4359;49.358;11.256;2022-09-17T00:21:34;6.72;;;3.10;;
8642;SDS011;4359;49.358;11.256;2022-09-17T00:26:27;7.65;;;2.90;;
8642;SDS011;4359;49.358;11.256;2022-09-17T00:28:54;4.95;;;2.88;;
8642;SDS011;4359;49.358;11.256;2022-09-17T00:31:21;5.57;;;2.63;;
8642;SDS011;4359;49.358;11.256;2022-09-17T00:33:47;7.00;;;3.03;;
8642;SDS011;4359;49.358;11.256;2022-09-17T00:36:13;4.30;;;2.70;;
8642;SDS011;4359;49.358;11.256;2022-09-17T00:41:05;5.05;;;2.83;;
8642;SDS011;4359;49.358;11.256;2022-09-17T00:46:10;6.10;;;2.80;;
8642;SDS011;4359;49.358;11.256;2022-09-17T00:48:50;5.72;;;2.65;;
8642;SDS011;4359;49.358;11.256;2022-09-17T00:51:20;6.85;;;3.22;;
8642;SDS011;4359;49.358;11.256;2022-09-17T00:53:53;4.43;;;2.90;;
8642;SDS011;4359;49.358;11.256;2022-09-17T00:56:21;6.57;;;3.35;;
8642;SDS011;4359;49.358;11.256;2022-09-17T00:58:50;8.93;;;3.95;;
8642;SDS011;4359;49.358;11.256;2022-09-17T01:01:17;10.60;;;4.28;;
8642;SDS011;4359;49.358;11.256;2022-09-17T01:11:47;8.60;;;3.80;;
8642;SDS011;4359;49.358;11.256;2022-09-17T01:22:15;7.25;;;3.50;;
8642;SDS011;4359;49.358;11.256;2022-09-17T01:37:36;8.13;;;3.35;;
8642;SDS011;4359;49.358;11.256;2022-09-17T01:40:15;11.23;;;3.20;;
8642;SDS011;4359;49.358;11.256;2022-09-17T01:43:03;5.85;;;2.72;;
8642;SDS011;4359;49.358;11.256;2022-09-17T01:45:48;8.40;;;3.25;;
8642;SDS011;4359;49.358;11.256;2022-09-17T01:48:16;7.07;;;3.17;;
8642;SDS011;4359;49.358;11.256;2022-09-17T01:53:17;6.30;;;2.92;;
8642;SDS011;4359;49.358;11.256;2022-09-17T01:55:48;5.38;;;2.55;;
8642;SDS011;4359;49.358;11.256;2022-09-17T01:58:20;8.23;;;2.90;;
8642;SDS011;4359;49.358;11.256;2022-09-17T02:01:00;7.97;;;3.30;;
8642;SDS011;4359;49.358;11.256;2022-09-17T02:06:20;6.25;;;2.60;;
8642;SDS011;4359;49.358;11.256;2022-09-17T02:08:55;4.88;;;2.90;;
8642;SDS011;4359;49.358;11.256;2022-09-17T02:11:25;6.05;;;2.90;;
8642;SDS011;4359;49.358;11.256;2022-09-17T02:13:59;5.18;;;2.90;;
8642;SDS011;4359;49.358;11.256;2022-09-17T02:16:31;7.05;;;3.17;;
8642;SDS011;4359;49.358;11.256;2022-09-17T02:21:40;6.57;;;2.58;;
8642;SDS011;4359;49.358;11.256;2022-09-17T02:26:52;7.53;;;2.65;;
8642;SDS011;4359;49.358;11.256;2022-09-17T02:29:34;7.65;;;2.95;;
8642;SDS011;4359;49.358;11.256;2022-09-17T02:32:02;8.40;;;2.97;;
8642;SDS011;4359;49.358;11.256;2022-09-17T02:34:28;7.15;;;2.75;;
8642;SDS011;4359;49.358;11.256;2022-09-17T02:39:20;4.55;;;2.80;;
8642;SDS011;4359;49.358;11.256;2022-09-17T03:00:44;10.38;;;5.20;;
8642;SDS011;4359;49.358;11.256;2022-09-17T03:03:16;14.77;;;5.05;;
8642;SDS011;4359;49.358;11.256;2022-09-17T03:05:54;13.38;;;5.82;;
8642;SDS011;4359;49.358;11.256;2022-09-17T03:08:27;17.70;;;6.45;;
8642;SDS011;4359;49.358;11.256;2022-09-17T03:10:54;19.67;;;6.75;;
8642;SDS011;4359;49.358;11.256;2022-09-17T03:13:20;15.90;;;6.07;;
8642;SDS011;4359;49.358;11.256;2022-09-17T03:18:11;17.42;;;7.10;;
8642;SDS011;4359;49.358;11.256;2022-09-17T03:20:37;16.17;;;6.82;;
8642;SDS011;4359;49.358;11.256;2022-09-17T03:23:02;12.68;;;7.00;;
8642;SDS011;4359;49.358;11.256;2022-09-17T03:27:54;20.42;;;6.82;;
8642;SDS011;4359;49.358;11.256;2022-09-17T03:30:19;23.20;;;7.38;;
8642;SDS011;4359;49.358;11.256;2022-09-17T03:35:10;17.92;;;6.40;;
8642;SDS011;4359;49.358;11.256;2022-09-17T03:37:36;14.60;;;5.65;;
8642;SDS011;4359;49.358;11.256;2022-09-17T03:40:02;12.23;;;5.25;;
8642;SDS011;4359;49.358;11.256;2022-09-17T03:42:28;14.25;;;5.72;;
8642;SDS011;4359;49.358;11.256;2022-09-17T03:47:20;14.15;;;6.05;;
8642;SDS011;4359;49.358;11.256;2022-09-17T03:49:46;13.63;;;6.10;;
8642;SDS011;4359;49.358;11.256;2022-09-17T03:54:38;11.43;;;5.47;;
8642;SDS011;4359;49.358;11.256;2022-09-17T03:57:03;19.13;;;5.60;;
8642;SDS011;4359;49.358;11.256;2022-09-17T03:59:29;15.02;;;5.55;;
8642;SDS011;4359;49.358;11.256;2022-09-17T04:01:55;12.38;;;5.28;;
8642;SDS011;4359;49.358;11.256;2022-09-17T04:04:21;11.55;;;4.75;;
8642;SDS011;4359;49.358;11.256;2022-09-17T04:09:13;13.02;;;4.20;;
8642;SDS011;4359;49.358;11.256;2022-09-17T04:11:38;17.08;;;4.55;;
8642;SDS011;4359;49.358;11.256;2022-09-17T04:14:04;8.45;;;3.88;;
8642;SDS011;4359;49.358;11.256;2022-09-17T04:18:55;9.20;;;3.90;;
8642;SDS011;4359;49.358;11.256;2022-09-17T04:21:21;15.73;;;4.45;;
8642;SDS011;4359;49.358;11.256;2022-09-17T04:23:46;16.00;;;4.18;;
8642;SDS011;4359;49.358;11.256;2022-09-17T04:26:12;12.77;;;3.55;;
8642;SDS011;4359;49.358;11.256;2022-09-17T04:28:38;16.10;;;4.03;;
8642;SDS011;4359;49.358;11.256;2022-09-17T04:33:29;12.77;;;3.88;;
8642;SDS011;4359;49.358;11.256;2022-09-17T04:35:55;11.38;;;3.58;;
8642;SDS011;4359;49.358;11.256;2022-09-17T04:40:46;12.93;;;3.53;;
8642;SDS011;4359;49.358;11.256;2022-09-17T04:45:38;13.52;;;3.30;;
8642;SDS011;4359;49.358;11.256;2022-09-17T04:50:29;9.68;;;2.90;;
8642;SDS011;4359;49.358;11.256;2022-09-17T04:52:55;17.52;;;3.38;;
8642;SDS011;4359;49.358;11.256;2022-09-17T04:57:48;9.45;;;2.80;;
8642;SDS011;4359;49.358;11.256;2022-09-17T05:00:15;12.25;;;3.25;;
8642;SDS011;4359;49.358;11.256;2022-09-17T05:02:43;9.38;;;3.15;;
8642;SDS011;4359;49.358;11.256;2022-09-17T05:05:10;11.75;;;3.05;;
8642;SDS011;4359;49.358;11.256;2022-09-17T05:10:05;8.30;;;2.63;;
8642;SDS011;4359;49.358;11.256;2022-09-17T05:12:32;10.02;;;3.03;;
8642;SDS011;4359;49.358;11.256;2022-09-17T05:17:23;8.93;;;2.58;;
8642;SDS011;4359;49.358;11.256;2022-09-17T05:19:48;12.70;;;3.15;;
8642;SDS011;4359;49.358;11.256;2022-09-17T05:22:14;8.70;;;2.30;;
8642;SDS011;4359;49.358;11.256;2022-09-17T05:24:41;12.18;;;2.50;;
8642;SDS011;4359;49.358;11.256;2022-09-17T05:29:32;9.63;;;2.30;;
8642;SDS011;4359;49.358;11.256;2022-09-17T05:34:24;11.55;;;2.90;;
8642;SDS011;4359;49.358;11.256;2022-09-17T05:36:49;8.80;;;2.80;;
8642;SDS011;4359;49.358;11.256;2022-09-17T05:39:15;12.60;;;3.28;;
8642;SDS011;4359;49.358;11.256;2022-09-17T05:41:41;8.80;;;2.83;;
8642;SDS011;4359;49.358;11.256;2022-09-17T05:46:32;6.05;;;2.38;;
8642;SDS011;4359;49.358;11.256;2022-09-17T05:48:58;15.35;;;2.60;;
8642;SDS011;4359;49.358;11.256;2022-09-17T05:51:23;12.00;;;2.58;;
8642;SDS011;4359;49.358;11.256;2022-09-17T05:53:49;6.05;;;2.55;;
8642;SDS011;4359;49.358;11.256;2022-09-17T05:56:15;11.07;;;2.20;;
8642;SDS011;4359;49.358;11.256;2022-09-17T05:58:40;10.77;;;3.42;;
8642;SDS011;4359;49.358;11.256;2022-09-17T06:01:06;8.65;;;2.33;;
8642;SDS011;4359;49.358;11.256;2022-09-17T06:05:58;8.35;;;2.38;;
8642;SDS011;4359;49.358;11.256;2022-09-17T06:08:24;10.32;;;2.45;;
8642;SDS011;4359;49.358;11.256;2022-09-17T06:10:51;6.85;;;2.25;;
8642;SDS011;4359;49.358;11.256;2022-09-17T06:15:48;5.97;;;2.20;;
8642;SDS011;4359;49.358;11.256;2022-09-17T06:18:17;8.23;;;1.70;;
8642;SDS011;4359;49.358;11.256;2022-09-17T06:23:20;5.47;;;1.60;;
8642;SDS011;4359;49.358;11.256;2022-09-17T06:25:52;4.55;;;1.70;;
8642;SDS011;4359;49.358;11.256;2022-09-17T06:28:20;4.60;;;1.50;;
8642;SDS011;4359;49.358;11.256;2022-09-17T06:33:13;8.10;;;1.88;;
8642;SDS011;4359;49.358;11.256;2022-09-17T06:35:39;7.65;;;1.80;;
8642;SDS011;4359;49.358;11.256;2022-09-17T06:40:30;4.68;;;1.88;;
8642;SDS011;4359;49.358;11.256;2022-09-17T06:42:57;5.65;;;1.85;;
8642;SDS011;4359;49.358;11.256;2022-09-17T06:45:23;4.07;;;1.60;;
8642;SDS011;4359;49.358;11.256;2022-09-17T06:47:50;5.65;;;1.40;;
8642;SDS011;4359;49.358;11.256;2022-09-17T06:52:51;3.20;;;1.30;;
8642;SDS011;4359;49.358;11.256;2022-09-17T06:55:17;9.32;;;1.65;;
8642;SDS011;4359;49.358;11.256;2022-09-17T06:57:44;5.07;;;1.60;;
8642;SDS011;4359;49.358;11.256;2022-09-17T07:00:10;4.05;;;1.25;;
8642;SDS011;4359;49.358;11.256;2022-09-17T07:02:36;3.88;;;1.42;;
8642;SDS011;4359;49.358;11.256;2022-09-17T07:07:28;3.35;;;1.40;;
8642;SDS011;4359;49.358;11.256;2022-09-17T07:09:53;3.00;;;1.33;;
8642;SDS011;4359;49.358;11.256;2022-09-17T07:12:19;2.80;;;1.20;;
8642;SDS011;4359;49.358;11.256;2022-09-17T07:14:45;5.13;;;1.55;;
8642;SDS011;4359;49.358;11.256;2022-09-17T07:17:11;4.70;;;1.45;;
8642;SDS011;4359;49.358;11.256;2022-09-17T07:19:38;6.10;;;1.30;;
8642;SDS011;4359;49.358;11.256;2022-09-17T07:24:29;3.17;;;1.30;;
8642;SDS011;4359;49.358;11.256;2022-09-17T07:26:55;2.88;;;1.48;;
8642;SDS011;4359;49.358;11.256;2022-09-17T07:31:50;7.78;;;1.60;;
8642;SDS011;4359;49.358;11.256;2022-09-17T07:36:41;5.00;;;1.70;;
8642;SDS011;4359;49.358;11.256;2022-09-17T07:39:08;4.93;;;1.67;;
8642;SDS011;4359;49.358;11.256;2022-09-17T07:41:35;7.22;;;1.90;;
8642;SDS011;4359;49.358;11.256;2022-09-17T07:46:27;5.85;;;1.60;;
8642;SDS011;4359;49.358;11.256;2022-09-17T07:48:54;4.72;;;1.80;;
8642;SDS011;4359;49.358;11.256;2022-09-17T07:51:21;6.45;;;2.20;;
8642;SDS011;4359;49.358;11.256;2022-09-17T07:53:52;5.28;;;2.50;;
8642;SDS011;4359;49.358;11.256;2022-09-17T07:56:19;6.15;;;2.05;;
8642;SDS011;4359;49.358;11.256;2022-09-17T08:01:10;4.85;;;2.38;;
8642;SDS011;4359;49.358;11.256;2022-09-17T08:03:37;6.28;;;2.30;;
8642;SDS011;4359;49.358;11.256;2022-09-17T08:06:07;6.32;;;2.60;;
8642;SDS011;4359;49.358;11.256;2022-09-17T08:08:35;7.15;;;2.63;;
8642;SDS011;4359;49.358;11.256;2022-09-17T08:11:05;5.07;;;2.67;;
8642;SDS011;4359;49.358;11.256;2022-09-17T08:13:32;7.05;;;2.90;;
8642;SDS011;4359;49.358;11.256;2022-09-17T08:16:09;6.00;;;3.05;;
8642;SDS011;4359;49.358;11.256;2022-09-17T08:18:39;8.50;;;3.17;;
8642;SDS011;4359;49.358;11.256;2022-09-17T08:21:06;7.55;;;3.20;;
8642;SDS011;4359;49.358;11.256;2022-09-17T08:23:35;9.00;;;3.30;;
8642;SDS011;4359;49.358;11.256;2022-09-17T08:26:02;6.22;;;3.30;;
8642;SDS011;4359;49.358;11.256;2022-09-17T08:28:29;9.38;;;3.78;;
8642;SDS011;4359;49.358;11.256;2022-09-17T08:31:00;9.63;;;3.33;;
8642;SDS011;4359;49.358;11.256;2022-09-17T08:33:31;9.75;;;3.65;;
8642;SDS011;4359;49.358;11.256;2022-09-17T08:35:57;6.43;;;3.42;;
8642;SDS011;4359;49.358;11.256;2022-09-17T08:38:30;9.20;;;3.70;;
8642;SDS011;4359;49.358;11.256;2022-09-17T08:46:22;10.27;;;3.60;;
8642;SDS011;4359;49.358;11.256;2022-09-17T08:54:08;9.88;;;3.60;;
8642;SDS011;4359;49.358;11.256;2022-09-17T08:56:37;10.40;;;3.85;;
8642;SDS011;4359;49.358;11.256;2022-09-17T09:01:58;9.20;;;3.17;;
8642;SDS011;4359;49.358;11.256;2022-09-17T09:07:23;8.70;;;3.65;;
8642;SDS011;4359;49.358;11.256;2022-09-17T09:12:50;14.27;;;4.63;;
8642;SDS011;4359;49.358;11.256;2022-09-17T09:18:16;13.27;;;4.28;;
8642;SDS011;4359;49.358;11.256;2022-09-17T09:20:48;10.88;;;3.90;;
8642;SDS011;4359;49.358;11.256;2022-09-17T09:25:51;12.20;;;4.25;;
8642;SDS011;4359;49.358;11.256;2022-09-17T09:28:41;9.85;;;4.28;;
8642;SDS011;4359;49.358;11.256;2022-09-17T09:33:53;10.20;;;3.60;;
8642;SDS011;4359;49.358;11.256;2022-09-17T09:36:20;15.85;;;3.30;;
8642;SDS011;4359;49.358;11.256;2022-09-17T09:38:56;12.18;;;3.30;;
8642;SDS011;4359;49.358;11.256;2022-09-17T09:41:31;9.38;;;3.10;;
8642;SDS011;4359;49.358;11.256;2022-09-17T09:44:09;12.77;;;3.53;;
8642;SDS011;4359;49.358;11.256;2022-09-17T09:58:46;12.75;;;3.03;;
8642;SDS011;4359;49.358;11.256;2022-09-17T10:00:46;11.30;;;3.00;;
8642;SDS011;4359;49.358;11.256;2022-09-17T10:03:17;14.93;;;3.15;;
8642;SDS011;4359;49.358;11.256;2022-09-17T10:05:51;11.50;;;2.80;;
8642;SDS011;4359;49.358;11.256;2022-09-17T10:08:28;11.38;;;3.75;;
8642;SDS011;4359;49.358;11.256;2022-09-17T10:13:29;11.10;;;2.60;;
8642;SDS011;4359;49.358;11.256;2022-09-17T10:15:56;10.48;;;2.70;;
8642;SDS011;4359;49.358;11.256;2022-09-17T10:18:38;11.98;;;2.63;;
8642;SDS011;4359;49.358;11.256;2022-09-17T10:21:04;9.63;;;2.83;;
8642;SDS011;4359;49.358;11.256;2022-09-17T10:23:30;11.10;;;2.80;;
8642;SDS011;4359;49.358;11.256;2022-09-17T10:26:00;11.40;;;3.08;;
8642;SDS011;4359;49.358;11.256;2022-09-17T10:28:34;12.70;;;3.30;;
8642;SDS011;4359;49.358;11.256;2022-09-17T10:31:13;15.15;;;3.17;;
8642;SDS011;4359;49.358;11.256;2022-09-17T10:33:40;10.88;;;3.13;;
8642;SDS011;4359;49.358;11.256;2022-09-17T10:36:36;10.68;;;2.70;;
8642;SDS011;4359;49.358;11.256;2022-09-17T10:41:59;13.35;;;3.10;;
8642;SDS011;4359;49.358;11.256;2022-09-17T10:44:29;12.55;;;3.00;;
8642;SDS011;4359;49.358;11.256;2022-09-17T10:47:05;13.05;;;3.85;;
8642;SDS011;4359;49.358;11.256;2022-09-17T10:49:38;11.40;;;2.70;;
8642;SDS011;4359;49.358;11.256;2022-09-17T10:52:33;10.82;;;2.47;;
8642;SDS011;4359;49.358;11.256;2022-09-17T11:00:16;12.13;;;2.67;;
8642;SDS011;4359;49.358;11.256;2022-09-17T11:02:59;11.55;;;2.58;;
8642;SDS011;4359;49.358;11.256;2022-09-17T11:11:14;9.85;;;2.53;;
8642;SDS011;4359;49.358;11.256;2022-09-17T11:16:57;10.25;;;2.10;;
8642;SDS011;4359;49.358;11.256;2022-09-17T11:25:23;8.85;;;2.30;;
8642;SDS011;4359;49.358;11.256;2022-09-17T11:28:11;8.65;;;2.10;;
8642;SDS011;4359;49.358;11.256;2022-09-17T11:36:44;12.88;;;1.90;;
8642;SDS011;4359;49.358;11.256;2022-09-17T11:42:09;5.78;;;1.67;;
8642;SDS011;4359;49.358;11.256;2022-09-17T11:44:42;6.47;;;1.90;;
8642;SDS011;4359;49.358;11.256;2022-09-17T11:47:23;13.73;;;2.05;;
8642;SDS011;4359;49.358;11.256;2022-09-17T11:50:23;7.72;;;2.10;;
8642;SDS011;4359;49.358;11.256;2022-09-17T11:53:16;14.38;;;2.15;;
8642;SDS011;4359;49.358;11.256;2022-09-17T11:55:51;7.15;;;1.75;;
8642;SDS011;4359;49.358;11.256;2022-09-17T11:58:36;8.07;;;2.38;;
8642;SDS011;4359;49.358;11.256;2022-09-17T12:01:20;6.82;;;1.90;;
8642;SDS011;4359;49.358;11.256;2022-09-17T12:04:00;8.82;;;1.85;;
8642;SDS011;4359;49.358;11.256;2022-09-17T12:06:43;6.63;;;1.90;;
8642;SDS011;4359;49.358;11.256;2022-09-17T12:09:18;7.30;;;2.00;;
8642;SDS011;4359;49.358;11.256;2022-09-17T12:11:52;9.07;;;2.95;;
8642;SDS011;4359;49.358;11.256;2022-09-17T12:14:25;10.63;;;2.45;;
8642;SDS011;4359;49.358;11.256;2022-09-17T12:17:24;10.60;;;1.88;;
8642;SDS011;4359;49.358;11.256;2022-09-17T12:19:59;9.20;;;1.90;;
8642;SDS011;4359;49.358;11.256;2022-09-17T12:22:34;6.70;;;1.90;;
8642;SDS011;4359;49.358;11.256;2022-09-17T12:25:04;7.88;;;1.88;;
8642;SDS011;4359;49.358;11.256;2022-09-17T12:30:18;9.82;;;1.70;;
8642;SDS011;4359;49.358;11.256;2022-09-17T12:32:57;9.15;;;1.90;;
8642;SDS011;4359;49.358;11.256;2022-09-17T12:35:58;7.47;;;2.03;;
8642;SDS011;4359;49.358;11.256;2022-09-17T12:52:31;8.75;;;2.58;;
8642;SDS011;4359;49.358;11.256;2022-09-17T12:55:28;6.28;;;2.28;;
8642;SDS011;4359;49.358;11.256;2022-09-17T12:58:01;5.65;;;2.50;;
8642;SDS011;4359;49.358;11.256;2022-09-17T13:00:46;13.25;;;3.35;;
8642;SDS011;4359;49.358;11.256;2022-09-17T13:03:19;9.25;;;2.88;;
8642;SDS011;4359;49.358;11.256;2022-09-17T13:14:27;6.35;;;2.53;;
8642;SDS011;4359;49.358;11.256;2022-09-17T13:17:23;5.28;;;2.38;;
8642;SDS011;4359;49.358;11.256;2022-09-17T13:20:32;8.70;;;2.42;;
8642;SDS011;4359;49.358;11.256;2022-09-17T13:23:34;7.43;;;2.60;;
8642;SDS011;4359;49.358;11.256;2022-09-17T13:26:12;7.97;;;2.70;;
8642;SDS011;4359;49.358;11.256;2022-09-17T13:28:46;9.10;;;2.78;;
8642;SDS011;4359;49.358;11.256;2022-09-17T13:36:52;7.03;;;2.30;;
8642;SDS011;4359;49.358;11.256;2022-09-17T13:44:41;9.00;;;2.50;;
8642;SDS011;4359;49.358;11.256;2022-09-17T13:49:53;8.25;;;2.03;;
8642;SDS011;4359;49.358;11.256;2022-09-17T13:52:35;7.15;;;1.20;;
8642;SDS011;4359;49.358;11.256;2022-09-17T13:55:08;3.92;;;1.00;;
8642;SDS011;4359;49.358;11.256;2022-09-17T13:58:05;6.53;;;1.10;;
8642;SDS011;4359;49.358;11.256;2022-09-17T14:00:55;2.08;;;0.95;;
8642;SDS011;4359;49.358;11.256;2022-09-17T14:13:48;2.13;;;0.85;;
8642;SDS011;4359;49.358;11.256;2022-09-17T14:32:26;4.40;;;1.48;;
8642;SDS011;4359;49.358;11.256;2022-09-17T14:34:54;3.92;;;1.15;;
8642;SDS011;4359;49.358;11.256;2022-09-17T14:37:21;4.07;;;1.38;;
8642;SDS011;4359;49.358;11.256;2022-09-17T14:39:48;4.03;;;1.33;;
8642;SDS011;4359;49.358;11.256;2022-09-17T14:42:20;2.80;;;1.00;;
8642;SDS011;4359;49.358;11.256;2022-09-17T14:44:51;3.83;;;1.10;;
8642;SDS011;4359;49.358;11.256;2022-09-17T14:47:22;1.75;;;0.65;;
8642;SDS011;4359;49.358;11.256;2022-09-17T14:49:48;3.50;;;1.50;;
8642;SDS011;4359;49.358;11.256;2022-09-17T14:52:27;4.68;;;1.88;;
8642;SDS011;4359;49.358;11.256;2022-09-17T14:57:38;5.38;;;2.50;;
8642;SDS011;4359;49.358;11.256;2022-09-17T15:00:04;5.53;;;2.50;;
8642;SDS011;4359;49.358;11.256;2022-09-17T15:07:43;3.55;;;1.30;;
8642;SDS011;4359;49.358;11.256;2022-09-17T15:10:14;3.97;;;1.42;;
8642;SDS011;4359;49.358;11.256;2022-09-17T15:12:44;5.82;;;1.98;;
8642;SDS011;4359;49.358;11.256;2022-09-17T15:15:20;4.07;;;1.60;;
8642;SDS011;4359;49.358;11.256;2022-09-17T15:17:48;5.55;;;2.33;;
8642;SDS011;4359;49.358;11.256;2022-09-17T15:20:16;5.25;;;1.77;;
8642;SDS011;4359;49.358;11.256;2022-09-17T15:22:53;5.43;;;1.83;;
8642;SDS011;4359;49.358;11.256;2022-09-17T15:25:28;4.45;;;1.73;;
8642;SDS011;4359;49.358;11.256;2022-09-17T15:27:56;6.10;;;1.70;;
8642;SDS011;4359;49.358;11.256;2022-09-17T15:30:28;6.57;;;2.05;;
8642;SDS011;4359;49.358;11.256;2022-09-17T15:32:54;4.60;;;1.48;;
8642;SDS011;4359;49.358;11.256;2022-09-17T15:35:28;11.63;;;1.85;;
8642;SDS011;4359;49.358;11.256;2022-09-17T15:37:55;10.82;;;2.20;;
8642;SDS011;4359;49.358;11.256;2022-09-17T15:40:27;4.22;;;1.77;;
8642;SDS011;4359;49.358;11.256;2022-09-17T15:45:31;6.85;;;2.22;;
8642;SDS011;4359;49.358;11.256;2022-09-17T15:48:02;7.80;;;3.60;;
8642;SDS011;4359;49.358;11.256;2022-09-17T15:50:30;6.30;;;2.05;;
8642;SDS011;4359;49.358;11.256;2022-09-17T15:53:13;5.85;;;2.00;;
8642;SDS011;4359;49.358;11.256;2022-09-17T15:58:50;9.15;;;2.58;;
8642;SDS011;4359;49.358;11.256;2022-09-17T16:01:44;5.03;;;1.90;;
8642;SDS011;4359;49.358;11.256;2022-09-17T16:04:21;5.10;;;2.00;;
8642;SDS011;4359;49.358;11.256;2022-09-17T16:09:39;5.38;;;1.80;;
8642;SDS011;4359;49.358;11.256;2022-09-17T16:12:11;6.00;;;1.80;;
8642;SDS011;4359;49.358;11.256;2022-09-17T16:14:42;7.35;;;2.47;;
8642;SDS011;4359;49.358;11.256;2022-09-17T16:20:11;7.53;;;2.40;;
8642;SDS011;4359;49.358;11.256;2022-09-17T16:22:45;8.10;;;2.50;;
8642;SDS011;4359;49.358;11.256;2022-09-17T16:25:15;7.63;;;2.42;;
8642;SDS011;4359;49.358;11.256;2022-09-17T16:30:14;6.45;;;3.53;;
8642;SDS011;4359;49.358;11.256;2022-09-17T16:32:42;15.25;;;7.75;;
8642;SDS011;4359;49.358;11.256;2022-09-17T16:35:10;10.82;;;4.30;;
8642;SDS011;4359;49.358;11.256;2022-09-17T16:37:37;8.48;;;3.08;;
8642;SDS011;4359;49.358;11.256;2022-09-17T16:40:02;10.77;;;2.97;;
8642;SDS011;4359;49.358;11.256;2022-09-17T16:42:29;5.57;;;1.85;;
8642;SDS011;4359;49.358;11.256;2022-09-17T16:44:55;7.80;;;2.00;;
8642;SDS011;4359;49.358;11.256;2022-09-17T16:47:21;6.72;;;2.38;;
8642;SDS011;4359;49.358;11.256;2022-09-17T16:49:46;7.13;;;2.25;;
8642;SDS011;4359;49.358;11.256;2022-09-17T16:52:12;7.03;;;2.30;;
8642;SDS011;4359;49.358;11.256;2022-09-17T16:54:38;7.45;;;2.38;;
8642;SDS011;4359;49.358;11.256;2022-09-17T16:57:03;5.78;;;2.20;;
8642;SDS011;4359;49.358;11.256;2022-09-17T16:59:29;5.88;;;2.22;;
8642;SDS011;4359;49.358;11.256;2022-09-17T17:01:55;10.40;;;2.55;;
8642;SDS011;4359;49.358;11.256;2022-09-17T17:04:20;7.63;;;2.70;;
8642;SDS011;4359;49.358;11.256;2022-09-17T17:06:46;4.43;;;1.88;;
8642;SDS011;4359;49.358;11.256;2022-09-17T17:09:12;6.50;;;2.28;;
8642;SDS011;4359;49.358;11.256;2022-09-17T17:11:38;8.63;;;1.95;;
8642;SDS011;4359;49.358;11.256;2022-09-17T17:14:04;9.20;;;1.75;;
8642;SDS011;4359;49.358;11.256;2022-09-17T17:16:30;5.93;;;1.30;;
8642;SDS011;4359;49.358;11.256;2022-09-17T17:18:56;8.35;;;2.20;;
8642;SDS011;4359;49.358;11.256;2022-09-17T17:21:21;6.75;;;2.22;;
8642;SDS011;4359;49.358;11.256;2022-09-17T17:23:47;7.70;;;2.25;;
8642;SDS011;4359;49.358;11.256;2022-09-17T17:26:16;11.27;;;1.70;;
8642;SDS011;4359;49.358;11.256;2022-09-17T17:28:42;7.22;;;1.75;;
8642;SDS011;4359;49.358;11.256;2022-09-17T17:31:08;5.57;;;1.40;;
8642;SDS011;4359;49.358;11.256;2022-09-17T17:33:35;5.40;;;1.63;;
8642;SDS011;4359;49.358;11.256;2022-09-17T17:38:27;10.23;;;2.17;;
8642;SDS011;4359;49.358;11.256;2022-09-17T17:43:28;10.55;;;1.10;;
8642;SDS011;4359;49.358;11.256;2022-09-17T17:48:19;3.90;;;1.17;;
8642;SDS011;4359;49.358;11.256;2022-09-17T17:50:44;4.05;;;1.05;;
8642;SDS011;4359;49.358;11.256;2022-09-17T17:53:10;3.13;;;0.73;;
8642;SDS011;4359;49.358;11.256;2022-09-17T17:55:36;3.08;;;0.90;;
8642;SDS011;4359;49.358;11.256;2022-09-17T17:58:01;6.05;;;1.05;;
8642;SDS011;4359;49.358;11.256;2022-09-17T18:00:27;3.65;;;0.77;;
8642;SDS011;4359;49.358;11.256;2022-09-17T18:02:53;2.47;;;0.80;;
8642;SDS011;4359;49.358;11.256;2022-09-17T18:05:18;4.75;;;0.98;;
8642;SDS011;4359;49.358;11.256;2022-09-17T18:07:44;2.13;;;0.70;;
8642;SDS011;4359;49.358;11.256;2022-09-17T18:10:10;3.08;;;0.70;;
8642;SDS011;4359;49.358;11.256;2022-09-17T18:12:37;3.45;;;0.85;;
8642;SDS011;4359;49.358;11.256;2022-09-17T18:17:29;1.90;;;0.73;;
8642;SDS011;4359;49.358;11.256;2022-09-17T18:19:55;2.78;;;0.93;;
8642;SDS011;4359;49.358;11.256;2022-09-17T18:22:21;2.17;;;0.73;;
8642;SDS011;4359;49.358;11.256;2022-09-17T18:27:12;3.05;;;0.80;;
8642;SDS011;4359;49.358;11.256;2022-09-17T18:29:39;3.00;;;0.70;;
8642;SDS011;4359;49.358;11.256;2022-09-17T18:34:30;3.38;;;0.65;;
8642;SDS011;4359;49.358;11.256;2022-09-17T18:36:56;2.13;;;0.70;;
8642;SDS011;4359;49.358;11.256;2022-09-17T18:39:22;3.20;;;0.77;;
8642;SDS011;4359;49.358;11.256;2022-09-17T18:41:49;2.65;;;1.10;;
8642;SDS011;4359;49.358;11.256;2022-09-17T18:46:42;1.92;;;1.10;;
8642;SDS011;4359;49.358;11.256;2022-09-17T18:51:33;4.82;;;2.20;;
8642;SDS011;4359;49.358;11.256;2022-09-17T18:53:59;4.60;;;2.80;;
8642;SDS011;4359;49.358;11.256;2022-09-17T18:56:27;3.90;;;1.65;;
8642;SDS011;4359;49.358;11.256;2022-09-17T18:58:55;3.03;;;1.70;;
8642;SDS011;4359;49.358;11.256;2022-09-17T19:01:22;3.85;;;1.30;;
8642;SDS011;4359;49.358;11.256;2022-09-17T19:03:50;6.70;;;2.00;;
8642;SDS011;4359;49.358;11.256;2022-09-17T19:08:42;8.70;;;4.00;;
8642;SDS011;4359;49.358;11.256;2022-09-17T19:11:08;6.55;;;2.75;;
8642;SDS011;4359;49.358;11.256;2022-09-17T19:13:38;6.22;;;2.80;;
8642;SDS011;4359;49.358;11.256;2022-09-17T19:16:06;4.28;;;2.20;;
8642;SDS011;4359;49.358;11.256;2022-09-17T19:18:33;5.18;;;1.65;;
8642;SDS011;4359;49.358;11.256;2022-09-17T19:21:01;3.80;;;1.70;;
8642;SDS011;4359;49.358;11.256;2022-09-17T19:23:31;4.80;;;1.83;;
8642;SDS011;4359;49.358;11.256;2022-09-17T19:26:10;5.65;;;1.67;;
8642;SDS011;4359;49.358;11.256;2022-09-17T19:28:37;3.75;;;1.55;;
8642;SDS011;4359;49.358;11.256;2022-09-17T19:33:34;4.15;;;1.60;;
8642;SDS011;4359;49.358;11.256;2022-09-17T19:36:03;5.82;;;2.05;;
8642;SDS011;4359;49.358;11.256;2022-09-17T19:38:31;7.50;;;3.53;;
8642;SDS011;4359;49.358;11.256;2022-09-17T19:40:57;7.05;;;3.03;;
8642;SDS011;4359;49.358;11.256;2022-09-17T19:43:25;6.50;;;3.03;;
8642;SDS011;4359;49.358;11.256;2022-09-17T19:45:51;6.47;;;2.10;;
8642;SDS011;4359;49.358;11.256;2022-09-17T19:48:17;6.47;;;2.10;;
8642;SDS011;4359;49.358;11.256;2022-09-17T19:53:15;5.53;;;1.98;;
8642;SDS011;4359;49.358;11.256;2022-09-17T19:58:06;5.15;;;2.30;;
8642;SDS011;4359;49.358;11.256;2022-09-17T20:05:27;5.00;;;2.08;;
8642;SDS011;4359;49.358;11.256;2022-09-17T20:07:53;7.47;;;2.13;;
8642;SDS011;4359;49.358;11.256;2022-09-17T20:12:44;7.53;;;2.70;;
8642;SDS011;4359;49.358;11.256;2022-09-17T20:15:10;8.48;;;3.13;;
8642;SDS011;4359;49.358;11.256;2022-09-17T20:17:35;6.75;;;2.90;;
8642;SDS011;4359;49.358;11.256;2022-09-17T20:20:01;8.73;;;3.30;;
8642;SDS011;4359;49.358;11.256;2022-09-17T20:22:28;7.95;;;2.58;;
8642;SDS011;4359;49.358;11.256;2022-09-17T20:27:19;5.90;;;2.65;;
8642;SDS011;4359;49.358;11.256;2022-09-17T20:29:45;8.90;;;2.60;;
8642;SDS011;4359;49.358;11.256;2022-09-17T20:32:10;4.80;;;2.50;;
8642;SDS011;4359;49.358;11.256;2022-09-17T20:37:01;5.15;;;2.47;;
8642;SDS011;4359;49.358;11.256;2022-09-17T20:39:27;5.97;;;2.90;;
8642;SDS011;4359;49.358;11.256;2022-09-17T20:41:53;7.05;;;2.45;;
8642;SDS011;4359;49.358;11.256;2022-09-17T20:44:19;6.15;;;2.47;;
8642;SDS011;4359;49.358;11.256;2022-09-17T20:49:10;6.75;;;2.83;;
8642;SDS011;4359;49.358;11.256;2022-09-17T20:51:36;6.38;;;1.98;;
8642;SDS011;4359;49.358;11.256;2022-09-17T20:56:28;5.93;;;2.00;;
8642;SDS011;4359;49.358;11.256;2022-09-17T20:58:58;5.15;;;2.30;;
8642;SDS011;4359;49.358;11.256;2022-09-17T21:01:32;18.13;;;2.20;;
8642;SDS011;4359;49.358;11.256;2022-09-17T21:03:59;6.60;;;1.95;;
8642;SDS011;4359;49.358;11.256;2022-09-17T21:06:27;7.72;;;1.98;;